createdAt,value
2019-03-11T00:00:39.593Z,4.56
2019-03-11T00:01:39.559Z,4.60
2019-03-11T00:02:39.550Z,4.55
2019-03-11T00:03:39.542Z,4.58
2019-03-11T00:04:46.647Z,4.56
2019-03-11T00:05:39.557Z,4.63
2019-03-11T00:06:39.502Z,4.58
2019-03-11T00:07:39.488Z,4.59
2019-03-11T00:08:39.491Z,4.59
2019-03-11T00:09:39.479Z,4.63
2019-03-11T00:10:39.453Z,4.62
2019-03-11T00:11:39.507Z,4.70
2019-03-11T00:12:39.526Z,4.71
2019-03-11T00:14:50.268Z,4.60
2019-03-11T00:15:50.206Z,4.60
2019-03-11T00:16:50.189Z,4.71
2019-03-11T00:17:50.194Z,4.66
2019-03-11T00:18:50.247Z,4.62
2019-03-11T00:19:50.163Z,4.68
2019-03-11T00:20:50.270Z,4.63
2019-03-11T00:21:50.156Z,4.67
2019-03-11T00:22:50.204Z,4.62
2019-03-11T00:23:50.125Z,4.67
2019-03-11T00:24:50.208Z,4.71
2019-03-11T00:25:50.970Z,4.74
2019-03-11T00:26:50.094Z,4.78
2019-03-11T00:27:50.055Z,4.71
2019-03-11T00:28:50.118Z,4.73
2019-03-11T00:29:50.151Z,4.78
2019-03-11T00:30:50.047Z,4.78
2019-03-11T00:31:50.051Z,4.84
2019-03-11T00:32:50.063Z,4.86
2019-03-11T00:33:50.023Z,4.93
2019-03-11T00:34:49.994Z,4.90
2019-03-11T00:35:50.083Z,4.93
2019-03-11T00:36:50.014Z,4.92
2019-03-11T00:37:49.952Z,4.96
2019-03-11T00:38:49.945Z,4.92
2019-03-11T00:39:49.934Z,4.99
2019-03-11T00:40:49.936Z,4.96
2019-03-11T00:41:49.996Z,5.07
2019-03-11T00:42:49.916Z,5.07
2019-03-11T00:43:49.899Z,5.10
2019-03-11T00:44:49.897Z,5.08
2019-03-11T00:45:49.854Z,5.08
2019-03-11T00:46:49.866Z,5.17
2019-03-11T00:48:01.134Z,5.15
2019-03-11T00:48:50.863Z,5.12
2019-03-11T00:49:50.481Z,5.10
2019-03-11T00:50:49.828Z,5.04
2019-03-11T00:51:49.791Z,5.10
2019-03-11T00:52:49.865Z,5.10
2019-03-11T00:53:49.800Z,5.11
2019-03-11T00:54:49.756Z,5.07
2019-03-11T00:55:49.771Z,5.04
2019-03-11T00:56:49.835Z,5.02
2019-03-11T00:57:49.718Z,4.94
2019-03-11T00:58:49.737Z,4.94
2019-03-11T00:59:49.760Z,4.96
2019-03-11T01:00:49.714Z,4.92
2019-03-11T01:01:49.686Z,4.87
2019-03-11T01:02:49.806Z,4.84
2019-03-11T01:03:49.770Z,4.84
2019-03-11T01:04:49.639Z,4.74
2019-03-11T01:05:49.776Z,4.80
2019-03-11T01:06:49.641Z,4.74
2019-03-11T01:07:49.613Z,4.80
2019-03-11T01:08:49.619Z,4.71
2019-03-11T01:09:49.611Z,4.71
2019-03-11T01:10:49.635Z,4.77
2019-03-11T01:11:49.570Z,4.74
2019-03-11T01:12:49.682Z,4.71
2019-03-11T01:13:49.625Z,4.74
2019-03-11T01:14:49.603Z,4.77
2019-03-11T01:15:49.503Z,4.80
2019-03-11T01:16:49.574Z,4.68
2019-03-11T01:17:49.605Z,4.63
2019-03-11T01:18:49.516Z,4.58
2019-03-11T01:19:49.495Z,4.66
2019-03-11T01:20:49.492Z,4.62
2019-03-11T01:21:49.471Z,4.66
2019-03-11T01:22:49.488Z,4.63
2019-03-11T01:23:49.506Z,4.63
2019-03-11T01:24:49.428Z,4.59
2019-03-11T01:25:49.541Z,4.58
2019-03-11T01:26:49.424Z,4.52
2019-03-11T01:27:49.415Z,4.52
2019-03-11T01:28:49.406Z,4.58
2019-03-11T01:29:49.470Z,4.53
2019-03-11T01:30:49.444Z,4.53
2019-03-11T01:31:49.382Z,4.44
2019-03-11T01:32:49.439Z,4.48
2019-03-11T01:33:49.359Z,4.48
2019-03-11T01:34:49.319Z,4.53
2019-03-11T01:35:49.328Z,4.44
2019-03-11T01:36:49.388Z,4.45
2019-03-11T01:37:49.310Z,4.37
2019-03-11T01:38:49.310Z,4.48
2019-03-11T01:39:49.285Z,4.40
2019-03-11T01:40:49.269Z,4.41
2019-03-11T01:41:49.314Z,4.45
2019-03-11T01:42:51.586Z,4.42
2019-03-11T01:43:49.239Z,4.44
2019-03-11T01:44:49.243Z,4.44
2019-03-11T01:45:49.299Z,4.49
2019-03-11T01:46:49.300Z,4.44
2019-03-11T01:47:49.183Z,4.44
2019-03-11T01:48:49.160Z,4.49
2019-03-11T01:49:49.173Z,4.42
2019-03-11T01:50:49.131Z,4.44
2019-03-11T01:51:49.249Z,4.40
2019-03-11T01:52:49.152Z,4.44
2019-03-11T01:53:49.112Z,4.37
2019-03-11T01:54:49.204Z,4.41
2019-03-11T01:55:49.090Z,4.49
2019-03-11T01:56:49.162Z,4.37
2019-03-11T01:57:49.100Z,4.38
2019-03-11T01:58:49.059Z,4.35
2019-03-11T01:59:49.069Z,4.30
2019-03-11T02:00:49.043Z,4.37
2019-03-11T02:01:49.021Z,4.37
2019-03-11T02:02:49.093Z,4.30
2019-03-11T02:03:49.287Z,4.35
2019-03-11T02:04:49.015Z,4.37
2019-03-11T02:05:48.964Z,4.45
2019-03-11T02:06:49.072Z,4.38
2019-03-11T02:07:49.012Z,4.45
2019-03-11T02:08:48.936Z,4.49
2019-03-11T02:09:49.090Z,4.52
2019-03-11T02:10:48.916Z,4.50
2019-03-11T02:11:48.903Z,4.42
2019-03-11T02:12:49.006Z,4.45
2019-03-11T02:13:48.892Z,4.45
2019-03-11T02:14:48.970Z,4.45
2019-03-11T02:15:48.854Z,4.45
2019-03-11T02:16:48.860Z,4.44
2019-03-11T02:17:48.974Z,4.48
2019-03-11T02:18:48.856Z,4.45
2019-03-11T02:19:48.813Z,4.31
2019-03-11T02:20:48.903Z,4.32
2019-03-11T02:21:48.804Z,4.35
2019-03-11T02:22:49.377Z,4.37
2019-03-11T02:23:48.795Z,4.35
2019-03-11T02:24:48.849Z,4.35
2019-03-11T02:25:48.906Z,4.32
2019-03-11T02:26:48.861Z,4.31
2019-03-11T02:27:48.759Z,4.34
2019-03-11T02:28:48.786Z,4.38
2019-03-11T02:29:48.722Z,4.38
2019-03-11T02:30:49.381Z,4.40
2019-03-11T02:31:48.790Z,4.40
2019-03-11T02:32:48.731Z,4.31
2019-03-11T02:33:48.728Z,4.31
2019-03-11T02:34:48.723Z,4.44
2019-03-11T02:35:48.717Z,4.38
2019-03-11T02:36:48.704Z,4.37
2019-03-11T02:37:48.633Z,4.30
2019-03-11T02:38:48.724Z,4.35
2019-03-11T02:39:48.621Z,4.30
2019-03-11T02:40:48.606Z,4.32
2019-03-11T02:41:48.651Z,4.37
2019-03-11T02:42:48.570Z,4.37
2019-03-11T02:43:48.563Z,4.31
2019-03-11T02:44:48.568Z,4.40
2019-03-11T02:45:48.591Z,4.28
2019-03-11T02:46:48.783Z,4.23
2019-03-11T02:47:48.511Z,4.40
2019-03-11T02:48:48.493Z,4.34
2019-03-11T02:49:48.626Z,4.32
2019-03-11T02:50:48.553Z,4.32
2019-03-11T02:51:48.565Z,4.34
2019-03-11T02:52:48.512Z,4.24
2019-03-11T02:53:48.469Z,4.28
2019-03-11T02:54:48.430Z,4.26
2019-03-11T02:55:51.083Z,4.30
2019-03-11T02:56:48.424Z,4.23
2019-03-11T02:57:48.515Z,4.19
2019-03-11T02:58:48.417Z,4.22
2019-03-11T02:59:48.402Z,4.23
2019-03-11T03:00:48.390Z,4.28
2019-03-11T03:01:48.375Z,4.24
2019-03-11T03:02:48.360Z,4.22
2019-03-11T03:03:48.398Z,4.23
2019-03-11T03:04:48.366Z,4.24
2019-03-11T03:05:48.479Z,4.23
2019-03-11T03:06:48.401Z,4.23
2019-03-11T03:07:48.330Z,4.23
2019-03-11T03:08:48.331Z,4.19
2019-03-11T03:09:48.338Z,4.16
2019-03-11T03:10:48.269Z,4.20
2019-03-11T03:11:48.268Z,4.24
2019-03-11T03:12:48.247Z,4.20
2019-03-11T03:13:48.313Z,4.26
2019-03-11T03:14:48.271Z,4.16
2019-03-11T03:15:48.307Z,4.19
2019-03-11T03:16:48.197Z,4.14
2019-03-11T03:17:48.167Z,4.16
2019-03-11T03:18:48.235Z,4.13
2019-03-11T03:19:48.181Z,4.20
2019-03-11T03:20:48.164Z,4.08
2019-03-11T03:21:48.319Z,4.04
2019-03-11T03:22:48.141Z,4.06
2019-03-11T03:23:48.151Z,4.04
2019-03-11T03:24:48.128Z,3.99
2019-03-11T03:25:48.085Z,4.05
2019-03-11T03:26:48.151Z,4.02
2019-03-11T03:27:48.321Z,3.98
2019-03-11T03:28:48.156Z,4.04
2019-03-11T03:29:48.050Z,4.04
2019-03-11T03:30:48.079Z,4.08
2019-03-11T03:31:48.043Z,4.04
2019-03-11T03:32:48.083Z,4.10
2019-03-11T03:33:48.103Z,4.02
2019-03-11T03:34:48.062Z,4.17
2019-03-11T03:35:48.031Z,4.16
2019-03-11T03:36:47.987Z,4.17
2019-03-11T03:37:48.037Z,4.17
2019-03-11T03:38:48.903Z,4.06
2019-03-11T03:39:47.966Z,4.08
2019-03-11T03:40:47.924Z,4.04
2019-03-11T03:41:47.951Z,4.12
2019-03-11T03:42:48.216Z,4.06
2019-03-11T03:43:47.981Z,4.05
2019-03-11T03:44:47.948Z,4.06
2019-03-11T03:45:48.031Z,4.05
2019-03-11T03:46:47.871Z,4.02
2019-03-11T03:47:47.936Z,4.01
2019-03-11T03:48:48.134Z,4.01
2019-03-11T03:49:47.979Z,3.98
2019-03-11T03:50:47.839Z,4.01
2019-03-11T03:51:47.811Z,3.99
2019-03-11T03:52:47.825Z,3.91
2019-03-11T03:53:47.807Z,3.94
2019-03-11T03:54:47.817Z,3.94
2019-03-11T03:55:47.840Z,3.96
2019-03-11T03:56:47.818Z,3.99
2019-03-11T03:57:47.829Z,4.01
2019-03-11T03:58:47.754Z,3.98
2019-03-11T03:59:47.723Z,3.98
2019-03-11T04:00:47.709Z,4.08
2019-03-11T04:01:47.854Z,4.06
2019-03-11T04:02:47.699Z,4.08
2019-03-11T04:03:47.820Z,4.17
2019-03-11T04:04:47.729Z,4.12
2019-03-11T04:05:47.684Z,4.20
2019-03-11T04:06:47.687Z,4.13
2019-03-11T04:07:47.632Z,4.14
2019-03-11T04:08:47.758Z,4.13
2019-03-11T04:09:47.609Z,3.98
2019-03-11T04:10:47.613Z,3.99
2019-03-11T04:11:47.600Z,3.91
2019-03-11T04:12:47.612Z,3.76
2019-03-11T04:13:47.589Z,3.76
2019-03-11T04:14:47.686Z,3.76
2019-03-11T04:15:47.598Z,3.66
2019-03-11T04:16:47.544Z,3.63
2019-03-11T04:17:47.553Z,3.65
2019-03-11T04:18:47.520Z,3.63
2019-03-11T04:19:47.508Z,3.65
2019-03-11T04:20:47.528Z,3.73
2019-03-11T04:21:47.567Z,3.65
2019-03-11T04:22:47.596Z,3.63
2019-03-11T04:23:47.462Z,3.59
2019-03-11T04:24:47.462Z,3.63
2019-03-11T04:25:47.556Z,3.60
2019-03-11T04:26:47.441Z,3.80
2019-03-11T04:27:47.509Z,3.80
2019-03-11T04:28:47.551Z,3.76
2019-03-11T04:29:47.445Z,3.78
2019-03-11T04:30:47.386Z,3.76
2019-03-11T04:31:47.390Z,3.78
2019-03-11T04:32:47.406Z,3.76
2019-03-11T04:33:47.421Z,3.74
2019-03-11T04:34:47.376Z,3.66
2019-03-11T04:35:47.335Z,3.70
2019-03-11T04:36:47.338Z,3.65
2019-03-11T04:37:47.293Z,3.66
2019-03-11T04:38:47.304Z,3.73
2019-03-11T04:39:47.339Z,3.70
2019-03-11T04:40:47.310Z,3.77
2019-03-11T04:41:47.894Z,3.76
2019-03-11T04:42:47.274Z,3.74
2019-03-11T04:43:47.300Z,3.73
2019-03-11T04:44:47.438Z,3.66
2019-03-11T04:45:47.271Z,3.76
2019-03-11T04:46:47.293Z,3.74
2019-03-11T04:47:47.210Z,3.74
2019-03-11T04:48:47.202Z,3.70
2019-03-11T04:49:47.183Z,3.70
2019-03-11T04:50:47.192Z,3.70
2019-03-11T04:51:47.234Z,3.70
2019-03-11T04:52:47.267Z,3.74
2019-03-11T04:53:47.146Z,3.77
2019-03-11T04:54:47.122Z,3.77
2019-03-11T04:55:47.112Z,3.69
2019-03-11T04:56:47.142Z,3.60
2019-03-11T04:57:47.210Z,3.62
2019-03-11T04:58:47.121Z,3.65
2019-03-11T04:59:47.103Z,3.68
2019-03-11T05:00:47.171Z,3.66
2019-03-11T05:01:47.079Z,3.65
2019-03-11T05:02:47.073Z,3.58
2019-03-11T05:03:47.088Z,3.55
2019-03-11T05:04:47.042Z,3.59
2019-03-11T05:05:47.030Z,3.56
2019-03-11T05:06:47.009Z,3.56
2019-03-11T05:07:46.993Z,3.51
2019-03-11T05:08:47.120Z,3.51
2019-03-11T05:09:47.052Z,3.56
2019-03-11T05:10:47.014Z,3.58
2019-03-11T05:11:47.023Z,3.60
2019-03-11T05:12:46.954Z,3.58
2019-03-11T05:13:47.037Z,3.58
2019-03-11T05:14:46.996Z,3.59
2019-03-11T05:15:46.922Z,3.58
2019-03-11T05:16:46.910Z,3.53
2019-03-11T05:17:48.540Z,3.55
2019-03-11T05:18:46.898Z,3.55
2019-03-11T05:19:46.910Z,3.60
2019-03-11T05:20:46.857Z,3.59
2019-03-11T05:21:46.839Z,3.55
2019-03-11T05:22:46.830Z,3.50
2019-03-11T05:23:46.839Z,3.50
2019-03-11T05:24:46.825Z,3.50
2019-03-11T05:25:46.879Z,3.55
2019-03-11T05:26:46.893Z,3.51
2019-03-11T05:27:46.918Z,3.59
2019-03-11T05:28:49.251Z,3.51
2019-03-11T05:29:46.750Z,3.63
2019-03-11T05:30:46.905Z,3.58
2019-03-11T05:31:46.810Z,3.58
2019-03-11T05:32:46.758Z,3.63
2019-03-11T05:33:46.720Z,3.59
2019-03-11T05:34:46.710Z,3.69
2019-03-11T05:35:46.719Z,3.60
2019-03-11T05:36:46.690Z,3.70
2019-03-11T05:37:46.885Z,3.77
2019-03-11T05:38:46.660Z,3.78
2019-03-11T05:39:46.635Z,3.74
2019-03-11T05:40:47.402Z,3.65
2019-03-11T05:41:46.779Z,3.76
2019-03-11T05:42:46.653Z,3.70
2019-03-11T05:43:46.593Z,3.77
2019-03-11T05:44:46.601Z,3.74
2019-03-11T05:45:46.589Z,3.70
2019-03-11T05:46:46.569Z,3.59
2019-03-11T05:47:46.600Z,3.60
2019-03-11T05:48:46.551Z,3.56
2019-03-11T05:49:46.563Z,3.44
2019-03-11T05:50:46.564Z,3.47
2019-03-11T05:51:46.514Z,3.45
2019-03-11T05:52:46.505Z,3.26
2019-03-11T05:53:46.594Z,3.28
2019-03-11T05:54:46.515Z,3.40
2019-03-11T05:55:46.513Z,3.26
2019-03-11T05:56:46.450Z,3.19
2019-03-11T05:57:46.448Z,3.21
2019-03-11T05:58:46.441Z,3.10
2019-03-11T05:59:46.493Z,2.95
2019-03-11T06:00:46.476Z,2.98
2019-03-11T06:01:46.413Z,2.93
2019-03-11T06:02:46.398Z,2.89
2019-03-11T06:03:46.409Z,2.77
2019-03-11T06:04:56.483Z,2.85
2019-03-11T06:05:46.421Z,2.75
2019-03-11T06:06:46.333Z,2.77
2019-03-11T06:07:46.353Z,2.67
2019-03-11T06:08:46.387Z,2.65
2019-03-11T06:09:46.318Z,2.56
2019-03-11T06:10:46.299Z,2.56
2019-03-11T06:11:46.297Z,2.57
2019-03-11T06:12:46.330Z,2.56
2019-03-11T06:13:46.294Z,2.57
2019-03-11T06:14:46.288Z,2.56
2019-03-11T06:15:46.240Z,2.47
2019-03-11T06:16:46.301Z,2.51
2019-03-11T06:17:46.319Z,2.56
2019-03-11T06:18:46.227Z,2.61
2019-03-11T06:19:46.259Z,2.57
2019-03-11T06:20:46.290Z,2.47
2019-03-11T06:21:46.179Z,2.62
2019-03-11T06:22:46.185Z,2.64
2019-03-11T06:23:46.178Z,2.54
2019-03-11T06:24:46.162Z,2.57
2019-03-11T06:25:46.198Z,2.44
2019-03-11T06:26:46.120Z,2.54
2019-03-11T06:27:46.131Z,2.50
2019-03-11T06:28:46.148Z,2.42
2019-03-11T06:29:46.097Z,2.38
2019-03-11T06:30:46.068Z,2.28
2019-03-11T06:31:46.133Z,2.33
2019-03-11T06:32:46.061Z,2.20
2019-03-11T06:33:46.127Z,2.20
2019-03-11T06:34:46.051Z,2.14
2019-03-11T06:35:46.047Z,2.13
2019-03-11T06:36:46.108Z,2.11
2019-03-11T06:37:46.016Z,1.97
2019-03-11T06:38:46.011Z,1.94
2019-03-11T06:39:46.007Z,1.99
2019-03-11T06:40:46.251Z,1.92
2019-03-11T06:41:45.969Z,1.99
2019-03-11T06:42:46.043Z,1.94
2019-03-11T06:43:45.958Z,1.99
2019-03-11T06:44:45.953Z,2.13
2019-03-11T06:45:45.920Z,2.02
2019-03-11T06:46:46.214Z,2.14
2019-03-11T06:47:45.919Z,2.13
2019-03-11T06:48:45.948Z,2.13
2019-03-11T06:49:45.886Z,2.14
2019-03-11T06:50:45.904Z,2.13
2019-03-11T06:51:45.850Z,2.15
2019-03-11T06:52:45.888Z,2.13
2019-03-11T06:53:45.873Z,2.11
2019-03-11T06:54:45.817Z,2.14
2019-03-11T06:55:45.895Z,2.17
2019-03-11T06:56:45.814Z,2.11
2019-03-11T06:57:45.912Z,2.13
2019-03-11T06:58:45.862Z,2.14
2019-03-11T06:59:45.792Z,2.22
2019-03-11T07:00:45.866Z,2.28
2019-03-11T07:01:45.823Z,2.36
2019-03-11T07:02:45.740Z,2.31
2019-03-11T07:03:45.752Z,2.33
2019-03-11T07:04:45.717Z,2.42
2019-03-11T07:05:45.709Z,2.39
2019-03-11T07:06:45.736Z,2.47
2019-03-11T07:07:45.819Z,2.51
2019-03-11T07:08:45.673Z,2.47
2019-03-11T07:09:45.663Z,2.43
2019-03-11T07:10:45.652Z,2.53
2019-03-11T07:11:45.712Z,2.60
2019-03-11T07:12:45.629Z,2.60
2019-03-11T07:13:45.715Z,2.53
2019-03-11T07:14:45.637Z,2.54
2019-03-11T07:15:45.599Z,2.61
2019-03-11T07:16:46.423Z,2.62
2019-03-11T07:17:45.581Z,2.57
2019-03-11T07:18:45.588Z,2.53
2019-03-11T07:19:45.625Z,2.57
2019-03-11T07:20:45.641Z,2.49
2019-03-11T07:21:45.527Z,2.49
2019-03-11T07:22:45.518Z,2.53
2019-03-11T07:23:45.514Z,2.54
2019-03-11T07:24:45.543Z,2.57
2019-03-11T07:25:45.510Z,2.60
2019-03-11T07:26:45.491Z,2.61
2019-03-11T07:27:45.479Z,2.62
2019-03-11T07:28:45.550Z,2.49
2019-03-11T07:29:45.575Z,2.56
2019-03-11T07:30:45.437Z,2.47
2019-03-11T07:31:45.413Z,2.57
2019-03-11T07:32:45.462Z,2.60
2019-03-11T07:33:45.458Z,2.62
2019-03-11T07:34:45.392Z,2.61
2019-03-11T07:35:45.376Z,2.54
2019-03-11T07:36:45.416Z,2.57
2019-03-11T07:37:45.535Z,2.62
2019-03-11T07:38:45.438Z,2.61
2019-03-11T07:39:45.374Z,2.57
2019-03-11T07:40:45.445Z,2.71
2019-03-11T07:41:45.329Z,2.62
2019-03-11T07:42:45.357Z,2.60
2019-03-11T07:43:45.343Z,2.74
2019-03-11T07:44:45.287Z,2.75
2019-03-11T07:45:45.271Z,2.82
2019-03-11T07:46:45.713Z,2.80
2019-03-11T07:47:45.323Z,2.85
2019-03-11T07:48:45.240Z,2.80
2019-03-11T07:49:45.233Z,2.93
2019-03-11T07:50:45.200Z,2.90
2019-03-11T07:51:45.209Z,2.95
2019-03-11T07:52:45.257Z,3.03
2019-03-11T07:53:45.405Z,3.03
2019-03-11T07:54:45.177Z,3.03
2019-03-11T07:55:45.140Z,3.01
2019-03-11T07:56:45.170Z,3.05
2019-03-11T07:57:45.132Z,3.07
2019-03-11T07:58:45.197Z,3.21
2019-03-11T07:59:45.132Z,3.13
2019-03-11T08:00:53.326Z,3.14
2019-03-11T08:01:46.269Z,3.22
2019-03-11T08:02:45.128Z,3.21
2019-03-11T08:03:45.091Z,3.22
2019-03-11T08:04:45.064Z,3.23
2019-03-11T08:05:45.066Z,3.29
2019-03-11T08:06:45.046Z,3.31
2019-03-11T08:07:45.038Z,3.16
2019-03-11T08:08:45.067Z,3.26
2019-03-11T08:09:45.057Z,3.25
2019-03-11T08:10:45.046Z,3.23
2019-03-11T08:11:45.034Z,3.31
2019-03-11T08:12:45.027Z,3.32
2019-03-11T08:13:44.978Z,3.37
2019-03-11T08:14:45.062Z,3.34
2019-03-11T08:15:44.949Z,3.36
2019-03-11T08:16:44.929Z,3.28
2019-03-11T08:17:44.917Z,3.40
2019-03-11T08:18:44.969Z,3.26
2019-03-11T08:19:44.912Z,3.22
2019-03-11T08:20:44.891Z,3.18
2019-03-11T08:21:44.883Z,3.28
2019-03-11T08:22:44.873Z,3.23
2019-03-11T08:23:44.858Z,3.13
2019-03-11T08:24:44.887Z,3.23
2019-03-11T08:25:44.844Z,3.26
2019-03-11T08:26:44.819Z,3.18
2019-03-11T08:27:44.879Z,3.13
2019-03-11T08:28:44.799Z,3.14
2019-03-11T08:29:44.800Z,3.11
2019-03-11T08:30:44.773Z,3.13
2019-03-11T08:31:44.767Z,3.25
2019-03-11T08:32:44.775Z,3.36
2019-03-11T08:33:44.888Z,3.34
2019-03-11T08:34:44.751Z,3.25
2019-03-11T08:35:44.760Z,3.31
2019-03-11T08:36:45.433Z,3.28
2019-03-11T08:37:44.709Z,3.25
2019-03-11T08:38:44.721Z,3.34
2019-03-11T08:39:44.683Z,3.31
2019-03-11T08:40:44.726Z,3.34
2019-03-11T08:41:44.715Z,3.44
2019-03-11T08:42:44.673Z,3.48
2019-03-11T08:43:44.619Z,3.47
2019-03-11T08:44:44.620Z,3.55
2019-03-11T08:45:44.605Z,3.62
2019-03-11T08:46:44.843Z,3.78
2019-03-11T08:47:44.645Z,3.77
2019-03-11T08:48:44.596Z,3.81
2019-03-11T08:49:44.576Z,3.98
2019-03-11T08:50:45.434Z,4.01
2019-03-11T08:51:44.548Z,4.02
2019-03-11T08:52:44.641Z,3.95
2019-03-11T08:53:44.582Z,3.94
2019-03-11T08:54:44.529Z,3.92
2019-03-11T08:55:44.536Z,3.99
2019-03-11T08:56:44.508Z,3.98
2019-03-11T08:57:44.500Z,3.92
2019-03-11T08:58:44.507Z,3.84
2019-03-11T08:59:44.455Z,3.92
2019-03-11T09:00:44.536Z,3.91
2019-03-11T09:01:44.467Z,3.91
2019-03-11T09:02:44.458Z,3.88
2019-03-11T09:03:44.424Z,3.78
2019-03-11T09:04:44.408Z,3.73
2019-03-11T09:05:44.402Z,3.70
2019-03-11T09:06:44.444Z,3.78
2019-03-11T09:07:44.374Z,3.83
2019-03-11T09:08:44.580Z,3.86
2019-03-11T09:09:44.359Z,3.81
2019-03-11T09:10:44.357Z,3.94
2019-03-11T09:11:44.394Z,3.94
2019-03-11T09:12:44.354Z,3.95
2019-03-11T09:13:44.312Z,3.94
2019-03-11T09:14:44.300Z,3.95
2019-03-11T09:15:44.290Z,4.02
2019-03-11T09:16:44.939Z,4.02
2019-03-11T09:17:44.364Z,4.13
2019-03-11T09:18:44.263Z,4.05
2019-03-11T09:19:44.355Z,4.08
2019-03-11T09:20:44.252Z,4.13
2019-03-11T09:21:44.219Z,4.10
2019-03-11T09:22:44.275Z,4.05
2019-03-11T09:23:44.276Z,4.16
2019-03-11T09:24:44.309Z,4.13
2019-03-11T09:25:44.172Z,4.16
2019-03-11T09:26:44.166Z,4.20
2019-03-11T09:27:44.153Z,4.19
2019-03-11T09:28:44.142Z,4.22
2019-03-11T09:29:44.301Z,4.24
2019-03-11T09:30:44.130Z,4.28
2019-03-11T09:31:44.126Z,4.28
2019-03-11T09:32:44.944Z,4.30
2019-03-11T09:33:44.093Z,4.35
2019-03-11T09:34:44.083Z,4.35
2019-03-11T09:35:44.199Z,4.34
2019-03-11T09:36:44.053Z,4.31
2019-03-11T09:37:44.664Z,4.41
2019-03-11T09:38:44.046Z,4.45
2019-03-11T09:39:44.022Z,4.41
2019-03-11T09:40:44.023Z,4.45
2019-03-11T09:41:44.077Z,4.35
2019-03-11T09:42:43.996Z,4.41
2019-03-11T09:43:43.991Z,4.37
2019-03-11T09:44:44.065Z,4.48
2019-03-11T09:45:43.964Z,4.49
2019-03-11T09:46:43.973Z,4.48
2019-03-11T09:47:44.000Z,4.42
2019-03-11T09:48:44.990Z,4.52
2019-03-11T09:49:43.921Z,4.60
2019-03-11T09:50:44.446Z,4.67
2019-03-11T09:51:44.072Z,4.68
2019-03-11T09:52:43.939Z,4.77
2019-03-11T09:53:43.925Z,4.73
2019-03-11T09:54:43.905Z,4.71
2019-03-11T09:55:43.859Z,4.68
2019-03-11T09:56:43.964Z,4.67
2019-03-11T09:57:43.958Z,4.73
2019-03-11T09:58:43.808Z,4.68
2019-03-11T09:59:44.515Z,4.74
2019-03-11T10:00:43.790Z,4.73
2019-03-11T10:01:43.796Z,4.73
2019-03-11T10:02:52.139Z,4.75
2019-03-11T10:03:44.811Z,4.86
2019-03-11T10:04:43.823Z,4.92
2019-03-11T10:05:43.750Z,4.96
2019-03-11T10:06:43.744Z,5.11
2019-03-11T10:07:43.763Z,5.20
2019-03-11T10:08:43.754Z,5.20
2019-03-11T10:09:43.707Z,5.26
2019-03-11T10:10:43.704Z,5.30
2019-03-11T10:11:43.723Z,5.35
2019-03-11T10:12:43.663Z,5.54
2019-03-11T10:13:43.659Z,5.53
2019-03-11T10:14:43.629Z,5.68
2019-03-11T10:15:43.633Z,5.71
2019-03-11T10:16:43.655Z,5.69
2019-03-11T10:17:43.619Z,5.64
2019-03-11T10:18:43.653Z,5.69
2019-03-11T10:19:43.591Z,5.69
2019-03-11T10:20:43.588Z,5.73
2019-03-11T10:21:43.560Z,5.79
2019-03-11T10:22:43.677Z,5.82
2019-03-11T10:23:43.538Z,5.91
2019-03-11T10:24:43.551Z,5.84
2019-03-11T10:25:43.551Z,5.91
2019-03-11T10:26:43.512Z,5.97
2019-03-11T10:27:43.561Z,5.98
2019-03-11T10:28:43.498Z,6.09
2019-03-11T10:29:43.494Z,6.20
2019-03-11T10:30:43.537Z,6.24
2019-03-11T10:31:43.461Z,6.20
2019-03-11T10:32:43.497Z,6.41
2019-03-11T10:33:43.439Z,6.39
2019-03-11T10:34:43.568Z,6.48
2019-03-11T10:35:43.431Z,6.49
2019-03-11T10:36:43.461Z,6.56
2019-03-11T10:37:43.400Z,6.52
2019-03-11T10:38:43.391Z,6.52
2019-03-11T10:39:43.416Z,6.52
2019-03-11T10:40:43.357Z,6.57
2019-03-11T10:41:43.357Z,6.52
2019-03-11T10:42:43.479Z,6.60
2019-03-11T10:43:43.327Z,6.59
2019-03-11T10:44:43.307Z,6.60
2019-03-11T10:45:43.328Z,6.67
2019-03-11T10:46:44.986Z,6.64
2019-03-11T10:47:43.290Z,6.67
2019-03-11T10:48:43.437Z,6.72
2019-03-11T10:49:43.259Z,6.74
2019-03-11T10:50:43.264Z,6.74
2019-03-11T10:51:43.245Z,6.75
2019-03-11T10:52:43.222Z,6.78
2019-03-11T10:53:43.227Z,6.87
2019-03-11T10:54:43.282Z,6.92
2019-03-11T10:55:43.285Z,6.89
2019-03-11T10:56:43.188Z,6.88
2019-03-11T10:57:43.181Z,6.99
2019-03-11T10:58:43.380Z,7.02
2019-03-11T10:59:43.191Z,7.06
2019-03-11T11:00:43.136Z,6.96
2019-03-11T11:01:43.133Z,6.99
2019-03-11T11:02:43.179Z,6.97
2019-03-11T11:03:43.150Z,7.07
2019-03-11T11:04:43.145Z,7.06
2019-03-11T11:05:43.130Z,7.03
2019-03-11T11:06:43.084Z,7.14
2019-03-11T11:07:43.061Z,7.06
2019-03-11T11:08:43.041Z,7.05
2019-03-11T11:09:43.099Z,7.07
2019-03-11T11:10:43.027Z,7.06
2019-03-11T11:11:43.009Z,7.05
2019-03-11T11:12:43.016Z,7.05
2019-03-11T11:13:43.020Z,7.03
2019-03-11T11:14:43.042Z,7.06
2019-03-11T11:15:43.025Z,7.03
2019-03-11T11:16:42.939Z,7.02
2019-03-11T11:17:43.175Z,7.06
2019-03-11T11:18:42.935Z,6.93
2019-03-11T11:19:42.967Z,7.03
2019-03-11T11:20:42.994Z,6.89
2019-03-11T11:21:42.911Z,6.88
2019-03-11T11:22:42.898Z,6.97
2019-03-11T11:23:42.930Z,7.07
2019-03-11T11:24:42.891Z,6.87
2019-03-11T11:25:42.925Z,6.93
2019-03-11T11:26:42.830Z,6.87
2019-03-11T11:27:42.820Z,6.95
2019-03-11T11:28:42.825Z,6.92
2019-03-11T11:29:42.820Z,6.78
2019-03-11T11:30:42.790Z,6.78
2019-03-11T11:31:42.904Z,6.81
2019-03-11T11:32:42.770Z,6.79
2019-03-11T11:33:42.863Z,6.85
2019-03-11T11:34:42.834Z,6.81
2019-03-11T11:35:42.805Z,6.78
2019-03-11T11:36:42.717Z,6.69
2019-03-11T11:37:42.766Z,6.67
2019-03-11T11:38:42.708Z,6.64
2019-03-11T11:39:42.779Z,6.67
2019-03-11T11:40:42.699Z,6.67
2019-03-11T11:41:42.780Z,6.64
2019-03-11T11:42:42.649Z,6.67
2019-03-11T11:43:42.665Z,6.77
2019-03-11T11:44:42.682Z,6.77
2019-03-11T11:45:42.669Z,6.89
2019-03-11T11:46:42.626Z,6.92
2019-03-11T11:47:42.601Z,6.99
2019-03-11T11:48:42.617Z,7.05
2019-03-11T11:49:42.579Z,7.10
2019-03-11T11:50:42.565Z,7.17
2019-03-11T11:51:42.559Z,7.28
2019-03-11T11:52:42.555Z,7.33
2019-03-11T11:53:42.593Z,7.42
2019-03-11T11:54:42.625Z,7.48
2019-03-11T11:55:42.513Z,7.60
2019-03-11T11:56:42.496Z,7.61
2019-03-11T11:57:42.685Z,7.76
2019-03-11T11:58:42.477Z,7.70
2019-03-11T11:59:53.316Z,7.77
2019-03-11T12:00:43.460Z,7.77
2019-03-11T12:01:42.440Z,7.69
2019-03-11T12:02:42.449Z,7.77
2019-03-11T12:03:42.446Z,7.77
2019-03-11T12:04:42.416Z,7.77
2019-03-11T12:05:42.455Z,7.79
2019-03-11T12:06:42.392Z,7.83
2019-03-11T12:07:42.455Z,7.83
2019-03-11T12:08:42.391Z,7.76
2019-03-11T12:09:42.370Z,7.82
2019-03-11T12:10:42.444Z,7.75
2019-03-11T12:11:42.330Z,7.76
2019-03-11T12:12:42.347Z,7.75
2019-03-11T12:13:49.536Z,7.60
2019-03-11T12:14:42.323Z,7.67
2019-03-11T12:15:42.312Z,7.61
2019-03-11T12:16:42.302Z,7.70
2019-03-11T12:17:42.265Z,7.76
2019-03-11T12:18:42.260Z,7.73
2019-03-11T12:19:42.266Z,7.63
2019-03-11T12:20:42.236Z,7.69
2019-03-11T12:21:42.339Z,7.53
2019-03-11T12:22:42.888Z,7.58
2019-03-11T12:23:46.220Z,7.51
2019-03-11T12:24:42.272Z,7.56
2019-03-11T12:25:42.174Z,7.50
2019-03-11T12:26:42.166Z,7.48
2019-03-11T12:27:52.737Z,7.47
2019-03-11T12:28:43.162Z,7.50
2019-03-11T12:29:42.131Z,7.53
2019-03-11T12:30:42.125Z,7.53
2019-03-11T12:31:42.128Z,7.50
2019-03-11T12:32:42.098Z,7.47
2019-03-11T12:33:42.125Z,7.53
2019-03-11T12:34:42.087Z,7.53
2019-03-11T12:35:42.092Z,7.56
2019-03-11T12:36:42.078Z,7.57
2019-03-11T12:37:42.131Z,7.67
2019-03-11T12:38:42.032Z,7.66
2019-03-11T12:39:42.044Z,7.75
2019-03-11T12:40:42.128Z,7.73
2019-03-11T12:41:42.000Z,7.67
2019-03-11T12:42:42.021Z,7.61
2019-03-11T12:43:42.006Z,7.76
2019-03-11T12:44:42.015Z,7.77
2019-03-11T12:45:41.956Z,7.83
2019-03-11T12:46:41.975Z,8.00
2019-03-11T12:47:41.932Z,8.06
2019-03-11T12:48:41.954Z,8.03
2019-03-11T12:49:41.918Z,8.06
2019-03-11T12:50:41.903Z,8.03
2019-03-11T12:51:49.623Z,7.79
2019-03-11T12:52:43.509Z,7.82
2019-03-11T12:53:41.876Z,7.82
2019-03-11T12:54:42.035Z,7.83
2019-03-11T12:55:41.877Z,8.26
2019-03-11T12:56:42.511Z,8.27
2019-03-11T12:57:41.825Z,8.13
2019-03-11T12:58:42.087Z,8.10
2019-03-11T12:59:41.822Z,8.06
2019-03-11T13:00:41.793Z,8.01
2019-03-11T13:01:41.824Z,7.93
2019-03-11T13:02:41.793Z,7.77
2019-03-11T13:03:41.776Z,7.66
2019-03-11T13:04:41.768Z,7.53
2019-03-11T13:05:41.737Z,7.51
2019-03-11T13:06:41.731Z,7.91
2019-03-11T13:07:41.731Z,7.97
2019-03-11T13:08:41.701Z,8.23
2019-03-11T13:09:41.694Z,8.44
2019-03-11T13:10:41.683Z,8.64
2019-03-11T13:11:41.690Z,8.82
2019-03-11T13:12:41.684Z,8.64
2019-03-11T13:13:41.687Z,8.82
2019-03-11T13:14:41.638Z,8.89
2019-03-11T13:15:41.631Z,8.69
2019-03-11T13:16:41.614Z,8.51
2019-03-11T13:17:41.632Z,8.48
2019-03-11T13:18:41.596Z,8.46
2019-03-11T13:19:41.622Z,8.82